Time;durP1;ratioP1;P1;durP2;ratioP2;P2;SDS_P1;SDS_P2;PMS_P1;PMS_P2;Temp;Humidity;BMP_temperature;BMP_pressure;BME280_temperature;BME280_humidity;BME280_pressure;Samples;Min_cycle;Max_cycle;Signal;HPM_P1;HPM_P2
2022/07/28 00:02:14;;;;;;;5.32;1.00;;;;;;;15.34;100.00;102019.03;5098149;28;20552;-70
2022/07/28 00:04:40;;;;;;;2.67;1.00;;;;;;;15.29;100.00;102026.91;5101329;28;20032;-71
2022/07/28 00:07:05;;;;;;;10.25;1.52;;;;;;;15.33;100.00;102022.56;5112283;28;20046;-72
2022/07/28 00:09:30;;;;;;;3.20;1.17;;;;;;;15.26;100.00;102018.00;5102231;28;20111;-71
2022/07/28 00:11:56;;;;;;;6.10;1.05;;;;;;;15.24;100.00;102014.47;5109545;28;20051;-71
2022/07/28 00:14:22;;;;;;;5.20;1.10;;;;;;;15.16;100.00;102007.25;5111557;28;20485;-71
2022/07/28 00:16:47;;;;;;;3.92;1.20;;;;;;;15.11;100.00;102008.97;5085921;28;20031;-70
2022/07/28 00:19:12;;;;;;;3.00;1.17;;;;;;;15.03;100.00;102012.31;5110945;28;20475;-72
2022/07/28 00:21:38;;;;;;;3.83;1.05;;;;;;;15.05;100.00;102005.31;5081467;28;20028;-70
2022/07/28 00:24:03;;;;;;;2.45;0.93;;;;;;;14.99;100.00;102011.41;5107277;28;20068;-71
2022/07/28 00:26:29;;;;;;;5.55;1.00;;;;;;;14.95;100.00;102010.44;5111408;28;20036;-71
2022/07/28 00:28:54;;;;;;;6.80;1.17;;;;;;;14.98;100.00;102006.97;5100403;28;20375;-73
2022/07/28 00:31:19;;;;;;;4.57;0.90;;;;;;;15.03;100.00;102004.38;5110546;28;20030;-71
2022/07/28 00:33:45;;;;;;;4.90;0.90;;;;;;;14.91;100.00;102007.75;5105433;28;20028;-71
2022/07/28 00:36:11;;;;;;;4.05;1.00;;;;;;;14.91;100.00;102013.91;5102960;28;20057;-70
2022/07/28 00:38:37;;;;;;;4.35;1.00;;;;;;;14.92;100.00;102012.16;5097956;28;20458;-71
2022/07/28 00:41:11;;;;;;;2.72;0.90;;;;;;;14.81;100.00;102007.56;5077159;28;20051;-72
2022/07/28 00:43:41;;;;;;;7.47;1.30;;;;;;;14.80;100.00;102010.19;5113479;28;20044;-72
2022/07/28 00:46:07;;;;;;;5.57;1.05;;;;;;;14.70;100.00;102006.47;5083084;28;20030;-71
2022/07/28 00:48:35;;;;;;;3.38;1.10;;;;;;;14.70;100.00;102009.13;5107503;28;20028;-72
2022/07/28 00:51:01;;;;;;;5.13;1.17;;;;;;;14.62;100.00;102010.69;5107149;28;20145;-70
2022/07/28 00:53:26;;;;;;;4.90;1.65;;;;;;;14.61;100.00;102008.91;5105696;28;20110;-71
2022/07/28 00:55:51;;;;;;;2.75;1.10;;;;;;;14.52;100.00;101998.16;5079229;28;20035;-71
2022/07/28 00:58:17;;;;;;;3.22;1.42;;;;;;;14.59;100.00;102005.34;5112741;28;20066;-71
2022/07/28 01:00:43;;;;;;;8.32;1.38;;;;;;;14.49;100.00;102002.53;5112862;28;20028;-71
2022/07/28 01:03:08;;;;;;;4.82;1.13;;;;;;;14.49;100.00;101994.56;5111572;28;20353;-71
2022/07/28 01:05:44;;;;;;;6.07;1.30;;;;;;;14.45;100.00;102003.34;5106402;28;20124;-71
2022/07/28 01:08:20;;;;;;;5.35;1.50;;;;;;;14.44;100.00;101996.25;5102530;28;20368;-71
2022/07/28 01:11:03;;;;;;;3.78;1.40;;;;;;;14.50;100.00;101995.47;5103955;28;20051;-71
2022/07/28 01:13:45;;;;;;;2.90;1.23;;;;;;;14.45;100.00;101992.72;5109329;28;20164;-71
2022/07/28 01:16:11;;;;;;;6.72;1.33;;;;;;;14.53;100.00;101992.88;5106340;28;20032;-69
2022/07/28 01:18:56;;;;;;;5.05;1.40;;;;;;;14.48;100.00;101997.19;5108794;28;20493;-71
2022/07/28 01:21:31;;;;;;;7.30;1.50;;;;;;;14.37;100.00;101998.75;5103871;28;20035;-70
2022/07/28 01:24:22;;;;;;;5.93;1.25;;;;;;;14.45;100.00;101991.84;5101724;28;20043;-70
2022/07/28 01:27:04;;;;;;;5.43;1.45;;;;;;;14.47;100.00;101993.69;5088404;28;20054;-71
2022/07/28 01:29:54;;;;;;;6.22;2.10;;;;;;;14.48;100.00;101991.91;5106924;28;20023;-72
2022/07/28 01:32:24;;;;;;;3.60;1.02;;;;;;;14.50;100.00;101988.44;5103533;28;20039;-72
2022/07/28 01:34:52;;;;;;;4.75;1.35;;;;;;;14.49;100.00;101981.34;5109420;28;20023;-72
2022/07/28 01:37:24;;;;;;;8.60;1.27;;;;;;;14.48;100.00;101982.19;5098791;28;20032;-72
2022/07/28 01:39:53;;;;;;;5.03;1.08;;;;;;;14.52;100.00;101977.84;5109358;28;20131;-71
2022/07/28 01:42:22;;;;;;;6.38;1.30;;;;;;;14.46;100.00;101978.63;5082411;28;20020;-71
2022/07/28 01:44:51;;;;;;;3.58;1.33;;;;;;;14.41;100.00;101977.66;5099474;28;20116;-72
2022/07/28 01:47:18;;;;;;;7.55;1.40;;;;;;;14.33;100.00;101973.97;5109499;28;20024;-71
2022/07/28 01:49:46;;;;;;;9.80;1.55;;;;;;;14.36;100.00;101976.66;5099744;28;20059;-70
2022/07/28 01:52:13;;;;;;;5.25;1.20;;;;;;;14.31;100.00;101973.03;5100596;28;20468;-71
2022/07/28 01:54:42;;;;;;;2.72;1.33;;;;;;;14.33;100.00;101960.72;5105488;28;20043;-72
2022/07/28 01:57:13;;;;;;;9.18;2.25;;;;;;;14.39;100.00;101967.88;5104025;28;20460;-72
2022/07/28 01:59:39;;;;;;;3.60;1.20;;;;;;;14.37;100.00;101969.63;5114378;28;20110;-72
2022/07/28 02:02:06;;;;;;;3.75;1.42;;;;;;;14.34;100.00;101967.81;5096778;28;20522;-72
2022/07/28 02:04:33;;;;;;;3.60;1.55;;;;;;;14.32;100.00;101965.16;5102175;28;20114;-71
2022/07/28 02:07:00;;;;;;;5.00;1.27;;;;;;;14.37;100.00;101959.03;5102854;28;20023;-72
2022/07/28 02:09:26;;;;;;;3.47;1.40;;;;;;;14.33;100.00;101950.13;5115159;28;20031;-71
2022/07/28 02:11:54;;;;;;;4.10;1.15;;;;;;;14.36;100.00;101957.25;5092064;28;20434;-70
2022/07/28 02:14:22;;;;;;;3.53;1.50;;;;;;;14.32;100.00;101958.94;5107871;28;20062;-71
2022/07/28 02:16:56;;;;;;;4.07;1.27;;;;;;;14.27;100.00;101945.63;5114532;28;20068;-72
2022/07/28 02:19:22;;;;;;;;;;;;;;;14.25;100.00;101949.09;5112579;28;20083;-72
2022/07/28 02:21:48;;;;;;;4.45;1.38;;;;;;;14.27;100.00;101950.91;5096395;28;19984;-71
2022/07/28 02:24:18;;;;;;;3.67;1.40;;;;;;;14.30;100.00;101950.09;5096397;28;20023;-71
2022/07/28 02:26:52;;;;;;;4.28;1.50;;;;;;;14.28;100.00;101951.81;5092260;28;20019;-72
2022/07/28 02:29:21;;;;;;;;;;;;;;;14.27;100.00;101945.63;5101385;28;20023;-70
2022/07/28 02:31:56;;;;;;;4.82;1.30;;;;;;;14.26;100.00;101948.25;5113452;28;19912;-70
2022/07/28 02:34:25;;;;;;;3.35;1.30;;;;;;;14.25;100.00;101954.41;5106933;28;20028;-71
2022/07/28 02:36:57;;;;;;;7.22;1.83;;;;;;;14.21;100.00;101948.13;5113023;28;20482;-71
2022/07/28 02:39:28;;;;;;;6.30;1.47;;;;;;;14.18;100.00;101948.09;5106965;28;20114;-72
2022/07/28 02:42:06;;;;;;;4.05;1.40;;;;;;;14.13;100.00;101950.66;5099631;28;20031;-72
2022/07/28 02:44:38;;;;;;;4.65;1.25;;;;;;;14.13;100.00;101952.41;5111366;28;20462;-70
2022/07/28 02:47:06;;;;;;;4.00;1.60;;;;;;;14.14;100.00;101947.13;5112648;28;20394;-71
2022/07/28 02:49:34;;;;;;;8.20;1.30;;;;;;;14.18;100.00;101948.09;5081790;28;20088;-72
2022/07/28 02:52:02;;;;;;;4.28;1.17;;;;;;;14.13;100.00;101948.00;5112576;28;20055;-73
2022/07/28 02:54:29;;;;;;;8.07;1.50;;;;;;;14.12;100.00;101954.16;5083968;28;20019;-72
2022/07/28 02:56:57;;;;;;;5.70;1.65;;;;;;;14.13;100.00;101948.00;5112358;28;20518;-73
2022/07/28 02:59:23;;;;;;;4.80;1.83;;;;;;;14.12;100.00;101953.25;5110051;28;20034;-70
2022/07/28 03:01:50;;;;;;;7.28;1.88;;;;;;;14.08;100.00;101957.63;5092231;28;20023;-71
2022/07/28 03:04:55;;;;;;;3.28;1.30;;;;;;;14.00;100.00;101956.56;5098104;28;20384;-71
2022/07/28 03:07:02;;;;;;;3.85;1.30;;;;;;;13.90;100.00;101950.16;5107263;28;20043;-71
2022/07/28 03:09:28;;;;;;;6.13;1.23;;;;;;;13.88;100.00;101948.38;5112944;28;20042;-71
2022/07/28 03:11:53;;;;;;;4.15;1.70;;;;;;;13.88;100.00;101946.63;5094436;28;20020;-71
2022/07/28 03:14:19;;;;;;;3.78;1.52;;;;;;;13.87;100.00;101954.53;5108179;28;20484;-72
2022/07/28 03:16:44;;;;;;;4.70;1.50;;;;;;;13.78;100.00;101953.47;5105288;28;20065;-71
2022/07/28 03:19:10;;;;;;;6.70;1.23;;;;;;;13.78;100.00;101950.81;5099954;28;20391;-72
2022/07/28 03:21:36;;;;;;;4.05;1.60;;;;;;;13.65;100.00;101952.31;5104071;28;20479;-72
2022/07/28 03:24:02;;;;;;;3.33;1.40;;;;;;;13.65;100.00;101959.34;5093791;28;20026;-71
2022/07/28 03:26:39;;;;;;;4.00;1.45;;;;;;;13.68;100.00;101954.13;5107272;28;20028;-71
2022/07/28 03:29:06;;;;;;;2.45;1.35;;;;;;;13.63;100.00;101956.69;5101889;28;20072;-72
2022/07/28 03:31:32;;;;;;;7.35;1.40;;;;;;;13.59;100.00;101949.53;5112167;28;20051;-72
2022/07/28 03:33:58;;;;;;;3.88;1.50;;;;;;;13.61;100.00;101949.56;5109150;28;20066;-71
2022/07/28 03:36:29;;;;;;;5.03;1.40;;;;;;;13.52;100.00;101952.88;5108219;28;20056;-71
2022/07/28 03:39:02;;;;;;;2.72;1.42;;;;;;;13.43;100.00;101950.94;5100746;28;20024;-70
2022/07/28 03:41:29;;;;;;;2.33;1.50;;;;;;;13.43;100.00;101948.31;5103481;28;20519;-71
2022/07/28 03:43:57;;;;;;;2.65;1.40;;;;;;;13.36;100.00;101946.38;5097483;28;20452;-71
2022/07/28 03:46:24;;;;;;;3.60;1.70;;;;;;;13.33;100.00;101954.19;5105470;28;20024;-70
2022/07/28 03:48:49;;;;;;;4.78;1.50;;;;;;;13.30;100.00;101962.94;5086460;28;20423;-71
2022/07/28 03:51:15;;;;;;;5.20;1.58;;;;;;;13.29;100.00;101962.91;5111500;28;20066;-72
2022/07/28 03:53:41;;;;;;;3.05;1.30;;;;;;;13.25;100.00;101963.69;5104024;28;20036;-72
2022/07/28 03:56:07;;;;;;;3.70;1.30;;;;;;;13.29;100.00;101965.56;5106373;28;20023;-70
2022/07/28 03:58:32;;;;;;;3.00;1.60;;;;;;;13.20;100.00;101965.31;5110764;28;20277;-71
2022/07/28 04:00:58;;;;;;;6.88;1.80;;;;;;;13.13;100.00;101969.56;5103188;28;20056;-72
2022/07/28 04:03:24;;;;;;;4.28;1.88;;;;;;;13.14;100.00;101972.28;5097210;28;20073;-70
2022/07/28 04:05:50;;;;;;;3.03;1.42;;;;;;;13.13;100.00;101973.13;5102245;28;20027;-71
2022/07/28 04:08:15;;;;;;;4.75;1.63;;;;;;;13.09;100.00;101971.28;5095309;28;20102;-70
2022/07/28 04:10:41;;;;;;;3.58;1.80;;;;;;;13.08;100.00;101977.41;5112053;28;20027;-71
2022/07/28 04:13:06;;;;;;;9.25;2.03;;;;;;;13.05;100.00;101982.63;5113154;28;20076;-70
2022/07/28 04:15:32;;;;;;;6.72;1.85;;;;;;;13.06;100.00;101981.78;5094563;28;20035;-72
2022/07/28 04:17:58;;;;;;;3.35;1.85;;;;;;;13.07;100.00;101975.59;5108774;28;20063;-72
2022/07/28 04:20:25;;;;;;;4.57;1.45;;;;;;;13.04;100.00;101980.81;5108135;28;20077;-72
2022/07/28 04:22:52;;;;;;;4.57;1.92;;;;;;;13.05;100.00;101979.97;5097627;28;20099;-71
2022/07/28 04:25:20;;;;;;;3.33;1.50;;;;;;;13.01;100.00;101975.47;5104479;28;20032;-71
2022/07/28 04:27:46;;;;;;;4.28;1.70;;;;;;;13.01;100.00;101979.84;5111951;28;20031;-71
2022/07/28 04:30:16;;;;;;;4.90;1.90;;;;;;;13.00;100.00;101978.97;5092668;28;20027;-71
2022/07/28 04:32:42;;;;;;;9.35;2.15;;;;;;;13.01;100.00;101985.13;5104908;28;20024;-71
2022/07/28 04:35:08;;;;;;;4.88;1.73;;;;;;;13.03;100.00;101979.03;5108245;28;20089;-71
2022/07/28 04:37:37;;;;;;;4.57;1.80;;;;;;;12.98;100.00;101981.56;5107992;28;20028;-71
2022/07/28 04:40:04;;;;;;;10.77;2.10;;;;;;;13.05;100.00;101976.44;5098622;28;20081;-71
2022/07/28 04:42:30;;;;;;;3.33;1.80;;;;;;;13.14;100.00;101980.22;5101397;28;20394;-71
2022/07/28 04:44:55;;;;;;;4.63;1.70;;;;;;;13.11;100.00;101976.59;5111935;28;20111;-71
2022/07/28 04:47:22;;;;;;;4.90;1.67;;;;;;;13.07;100.00;101975.59;5106363;28;20036;-71
2022/07/28 04:49:47;;;;;;;4.70;1.83;;;;;;;13.01;100.00;101978.13;5090954;28;20027;-71
2022/07/28 04:52:14;;;;;;;10.68;2.08;;;;;;;13.08;100.00;101977.41;5113137;28;20073;-71
2022/07/28 04:54:39;;;;;;;4.75;1.83;;;;;;;13.23;100.00;101981.28;5105973;28;20085;-72
2022/07/28 04:57:05;;;;;;;4.65;1.83;;;;;;;13.26;100.00;101976.06;5084311;28;20052;-72
2022/07/28 04:59:30;;;;;;;6.32;1.60;;;;;;;13.31;100.00;101979.72;5111677;28;20028;-72
2022/07/28 05:01:58;;;;;;;4.38;2.05;;;;;;;13.24;100.00;101967.19;5113352;28;20068;-71
2022/07/28 05:04:24;;;;;;;11.82;1.92;;;;;;;13.38;100.00;101965.81;5112262;28;20036;-70
2022/07/28 05:06:49;;;;;;;4.38;1.77;;;;;;;13.38;100.00;101976.38;5114771;28;20031;-71
2022/07/28 05:09:15;;;;;;;7.68;2.08;;;;;;;13.45;100.00;101978.31;5112413;28;20027;-72
2022/07/28 05:11:40;;;;;;;2.70;1.65;;;;;;;13.37;100.00;101976.34;5112729;28;20069;-71
2022/07/28 05:14:07;;;;;;;3.08;1.67;;;;;;;13.41;100.00;101976.44;5097018;28;20032;-71
2022/07/28 05:16:32;;;;;;;5.68;2.25;;;;;;;13.46;100.00;101972.16;5086720;28;20023;-71
2022/07/28 05:18:58;;;;;;;8.05;2.30;;;;;;;13.51;100.00;101976.66;5096700;28;20403;-71
2022/07/28 05:21:23;;;;;;;6.68;1.73;;;;;;;13.48;100.00;101982.75;5101678;28;21482;-71
2022/07/28 05:23:48;;;;;;;5.80;2.58;;;;;;;13.53;100.00;101975.84;5101726;28;20590;-72
2022/07/28 05:26:14;;;;;;;9.48;1.65;;;;;;;13.57;100.00;101977.69;5116078;28;20024;-72
2022/07/28 05:28:39;;;;;;;2.88;1.73;;;;;;;13.57;100.00;101972.41;5091579;28;20038;-72
2022/07/28 05:31:06;;;;;;;9.40;2.15;;;;;;;13.53;100.00;101974.97;5111096;28;20037;-71
2022/07/28 05:33:32;;;;;;;3.38;1.80;;;;;;;13.51;100.00;101971.38;5103447;28;20028;-70
2022/07/28 05:35:58;;;;;;;6.18;1.80;;;;;;;13.60;100.00;101976.88;5103146;28;20024;-68
2022/07/28 05:38:24;;;;;;;7.70;1.98;;;;;;;13.68;100.00;101983.22;5107329;28;20886;-72
2022/07/28 05:40:50;;;;;;;4.93;1.70;;;;;;;13.64;100.00;101979.59;5087011;28;20160;-73
2022/07/28 05:43:16;;;;;;;5.53;1.80;;;;;;;13.77;100.00;101978.13;5097214;28;20069;-73
2022/07/28 05:45:41;;;;;;;5.70;1.95;;;;;;;13.83;100.00;101985.31;5112401;28;20033;-73
2022/07/28 05:48:07;;;;;;;5.45;1.88;;;;;;;13.81;100.00;101974.69;5113135;28;20459;-73
2022/07/28 05:50:32;;;;;;;4.85;1.92;;;;;;;13.88;100.00;101973.06;5107905;28;20475;-74
2022/07/28 05:52:58;;;;;;;5.28;1.38;;;;;;;13.94;100.00;101972.31;5102055;28;20035;-74
2022/07/28 05:55:23;;;;;;;4.07;1.80;;;;;;;13.99;100.00;101968.88;5081540;28;20032;-74
2022/07/28 05:57:49;;;;;;;10.52;1.95;;;;;;;14.05;100.00;101975.19;5101342;28;20548;-72
2022/07/28 06:00:21;;;;;;;7.38;1.70;;;;;;;14.09;100.00;101983.19;5082497;28;20027;-71
2022/07/28 06:02:48;;;;;;;6.18;1.70;;;;;;;14.13;100.00;101971.84;5103278;28;20028;-73
2022/07/28 06:05:18;;;;;;;8.05;2.53;;;;;;;14.15;100.00;101978.03;5106743;28;20053;-73
2022/07/28 06:07:44;;;;;;;3.88;1.45;;;;;;;14.20;100.00;101979.88;5095580;28;20399;-74
2022/07/28 06:10:14;;;;;;;6.30;1.90;;;;;;;14.24;100.00;101979.97;5111870;28;20027;-73
2022/07/28 06:12:41;;;;;;;8.23;2.20;;;;;;;14.28;100.00;101978.28;5109720;28;20100;-71
2022/07/28 06:15:10;;;;;;;7.32;1.48;;;;;;;14.34;100.00;101978.41;5105665;28;20098;-71
2022/07/28 06:17:35;;;;;;;5.25;1.70;;;;;;;14.36;100.00;101979.31;5110722;28;20456;-70
2022/07/28 06:20:01;;;;;;;5.57;1.52;;;;;;;14.43;100.00;101978.59;5109879;28;20024;-71
2022/07/28 06:22:26;;;;;;;7.53;1.70;;;;;;;14.42;100.00;101979.44;5101470;28;20036;-72
2022/07/28 06:24:51;;;;;;;7.45;1.85;;;;;;;14.44;100.00;101983.00;5115357;28;20494;-72
2022/07/28 06:27:17;;;;;;;7.35;1.80;;;;;;;14.47;100.00;101976.88;5090185;28;20075;-71
2022/07/28 06:29:42;;;;;;;2.70;1.30;;;;;;;14.50;100.00;101987.50;5110224;28;20024;-71
2022/07/28 06:32:07;;;;;;;8.07;1.67;;;;;;;14.55;100.00;101979.66;5091061;28;20027;-71
2022/07/28 06:34:33;;;;;;;4.25;1.90;;;;;;;14.59;100.00;101984.16;5103354;28;20039;-71
2022/07/28 06:36:58;;;;;;;5.95;1.58;;;;;;;14.63;100.00;101986.91;5098889;28;20027;-71
2022/07/28 06:39:23;;;;;;;7.07;1.83;;;;;;;14.65;100.00;101979.91;5111988;28;20427;-72
2022/07/28 06:41:48;;;;;;;6.70;1.60;;;;;;;14.72;100.00;101978.25;5111786;28;20054;-72
2022/07/28 06:44:14;;;;;;;5.95;1.58;;;;;;;14.74;100.00;101980.94;5113979;28;20094;-71
2022/07/28 06:46:39;;;;;;;5.38;1.25;;;;;;;14.79;100.00;101968.66;5105479;27;20024;-72
2022/07/28 06:49:05;;;;;;;5.07;1.75;;;;;;;14.79;100.00;101966.88;5096337;27;20020;-72
2022/07/28 06:51:30;;;;;;;2.28;1.30;;;;;;;14.84;100.00;101965.22;5097785;28;20463;-71
2022/07/28 06:53:56;;;;;;;3.55;1.50;;;;;;;14.82;100.00;101966.94;5105818;28;20028;-72
2022/07/28 06:56:22;;;;;;;12.98;1.92;;;;;;;14.90;100.00;101966.19;5109103;28;20135;-72
2022/07/28 06:58:47;;;;;;;5.97;1.50;;;;;;;15.04;100.00;101974.34;5111061;27;20083;-72
2022/07/28 07:01:14;;;;;;;4.78;1.30;;;;;;;15.15;100.00;101978.97;5106943;27;20031;-72
2022/07/28 07:03:41;;;;;;;5.57;1.45;;;;;;;15.23;100.00;101979.06;5105095;28;20024;-73
2022/07/28 07:06:07;;;;;;;5.07;1.63;;;;;;;15.36;100.00;101977.50;5098786;28;20039;-72
2022/07/28 07:08:33;;;;;;;7.53;1.80;;;;;;;15.49;100.00;101976.84;5105387;28;20027;-72
2022/07/28 07:10:58;;;;;;;6.22;1.48;;;;;;;15.62;100.00;101971.69;5113604;28;20434;-72
2022/07/28 07:13:24;;;;;;;7.13;1.50;;;;;;;15.72;100.00;101972.72;5111114;28;20577;-72
2022/07/28 07:15:49;;;;;;;4.43;1.13;;;;;;;15.81;100.00;101965.78;5102990;28;20037;-73
2022/07/28 07:18:14;;;;;;;4.18;1.25;;;;;;;15.91;100.00;101966.81;5100033;27;20024;-72
2022/07/28 07:20:40;;;;;;;3.90;1.30;;;;;;;15.97;100.00;101966.00;5110495;28;20042;-73
2022/07/28 07:23:05;;;;;;;3.35;1.20;;;;;;;16.06;100.00;101963.47;5102509;28;20016;-74
2022/07/28 07:25:30;;;;;;;5.07;1.30;;;;;;;16.13;100.00;101960.00;5096674;28;20035;-73
2022/07/28 07:27:56;;;;;;;5.70;1.70;;;;;;;16.12;100.00;101958.19;5108307;28;20015;-73
2022/07/28 07:30:21;;;;;;;4.90;1.45;;;;;;;16.19;100.00;101960.03;5108928;27;20113;-73
2022/07/28 07:32:47;;;;;;;6.47;1.63;;;;;;;16.29;100.00;101962.81;5095385;28;20447;-73
2022/07/28 07:35:12;;;;;;;9.32;1.20;;;;;;;16.38;100.00;101960.25;5110704;28;20027;-71
2022/07/28 07:37:38;;;;;;;3.53;1.17;;;;;;;16.43;100.00;101958.53;5102465;28;20129;-72
2022/07/28 07:40:04;;;;;;;3.13;1.10;;;;;;;16.49;100.00;101968.34;5106020;28;20043;-71
2022/07/28 07:42:30;;;;;;;3.42;0.88;;;;;;;16.46;100.00;101963.88;5102923;28;20212;-71
2022/07/28 07:44:55;;;;;;;7.47;1.45;;;;;;;16.61;100.00;101963.13;5108416;28;20127;-71
2022/07/28 07:47:21;;;;;;;7.30;1.27;;;;;;;16.65;100.00;101970.25;5102124;28;20031;-71
2022/07/28 07:49:46;;;;;;;5.63;1.65;;;;;;;16.76;100.00;101962.38;5102139;28;20025;-72
2022/07/28 07:52:12;;;;;;;4.93;1.08;;;;;;;16.88;100.00;101958.94;5100204;28;20443;-72
2022/07/28 07:54:37;;;;;;;9.27;1.30;;;;;;;16.95;100.00;101957.25;5102790;28;20081;-73
2022/07/28 07:57:03;;;;;;;4.65;1.20;;;;;;;17.08;100.00;101963.56;5097941;28;20028;-73
2022/07/28 07:59:29;;;;;;;10.38;1.40;;;;;;;17.22;100.00;101958.34;5089454;28;20036;-74
2022/07/28 08:01:55;;;;;;;7.50;1.75;;;;;;;17.32;100.00;101957.53;5098943;28;20027;-72
2022/07/28 08:04:22;;;;;;;6.72;1.20;;;;;;;17.43;100.00;101961.16;5103617;28;20115;-73
2022/07/28 08:06:48;;;;;;;1.92;0.88;;;;;;;17.48;100.00;101959.38;5110187;28;20030;-72
2022/07/28 08:09:14;;;;;;;5.38;0.98;;;;;;;17.60;100.00;101963.91;5104789;28;20073;-71
2022/07/28 08:11:39;;;;;;;5.15;1.30;;;;;;;17.69;100.00;101968.41;5090844;28;20032;-72
2022/07/28 08:14:05;;;;;;;7.03;1.13;;;;;;;17.74;100.00;101963.09;5089330;28;20401;-72
2022/07/28 08:16:30;;;;;;;4.45;1.20;;;;;;;17.87;100.00;101957.81;5085986;28;20072;-72
2022/07/28 08:18:57;;;;;;;5.35;1.33;;;;;;;17.89;100.00;101954.28;5111235;28;20539;-72
2022/07/28 08:21:24;;;;;;;3.92;1.17;;;;;;;17.93;100.00;101956.09;5111404;28;20492;-72
2022/07/28 08:23:50;;;;;;;3.60;1.10;;;;;;;18.07;100.00;101958.81;5114907;28;20024;-71
2022/07/28 08:26:15;;;;;;;1.92;1.08;;;;;;;18.21;100.00;101954.41;5110828;28;20487;-73
2022/07/28 08:28:41;;;;;;;5.10;1.25;;;;;;;18.26;100.00;101954.41;5107497;27;20023;-72
2022/07/28 08:31:06;;;;;;;5.60;1.25;;;;;;;18.15;97.82;101951.72;5102189;28;20097;-72
2022/07/28 08:33:35;;;;;;;4.68;1.05;;;;;;;18.30;98.28;101945.53;5110575;27;20035;-72
2022/07/28 08:36:00;;;;;;;5.05;1.05;;;;;;;18.42;99.24;101948.25;5098975;28;20028;-72
2022/07/28 08:38:25;;;;;;;4.85;0.95;;;;;;;18.50;97.90;101938.50;5111690;28;20404;-72
2022/07/28 08:40:52;;;;;;;6.07;1.10;;;;;;;18.57;96.27;101946.47;5093104;28;20036;-72
2022/07/28 08:43:31;;;;;;;4.10;1.10;;;;;;;18.68;94.66;101942.94;5105019;27;20020;-73
2022/07/28 08:45:58;;;;;;;5.75;1.00;;;;;;;18.80;97.86;101952.72;5108862;28;20015;-73
2022/07/28 08:48:26;;;;;;;3.63;0.95;;;;;;;18.99;90.00;101944.75;5106395;28;20022;-72
2022/07/28 08:50:52;;;;;;;3.08;0.98;;;;;;;19.16;92.26;101945.59;5116420;28;20471;-72
2022/07/28 08:53:19;;;;;;;2.78;0.90;;;;;;;19.37;93.27;101943.78;5111179;28;20103;-72
2022/07/28 08:55:46;;;;;;;6.15;1.27;;;;;;;19.40;88.42;101938.47;5080227;28;20027;-72
2022/07/28 08:58:12;;;;;;;6.03;1.02;;;;;;;19.45;85.43;101942.00;5113629;28;20050;-71
2022/07/28 09:00:38;;;;;;;5.05;1.10;;;;;;;19.28;84.05;101941.16;5109899;28;20107;-71
2022/07/28 09:03:05;;;;;;;4.05;1.10;;;;;;;19.31;86.62;101938.47;5100717;28;20106;-72
2022/07/28 09:05:31;;;;;;;2.33;1.17;;;;;;;19.23;83.95;101933.16;5100311;28;20067;-72
2022/07/28 09:07:57;;;;;;;2.70;0.50;;;;;;;19.36;82.17;101934.91;5104719;28;20106;-72
2022/07/28 09:10:22;;;;;;;3.90;0.98;;;;;;;19.43;82.72;101935.78;5087878;28;20110;-72
2022/07/28 09:12:48;;;;;;;4.88;1.08;;;;;;;19.36;79.78;101936.69;5113165;28;20034;-72
2022/07/28 09:15:13;;;;;;;7.47;1.40;;;;;;;19.52;83.29;101946.44;5086105;28;20020;-71
2022/07/28 09:17:40;;;;;;;7.15;1.00;;;;;;;19.54;80.14;101941.09;5105414;28;20443;-72
2022/07/28 09:20:07;;;;;;;3.08;0.95;;;;;;;19.60;84.07;101941.06;5104808;28;20034;-72
2022/07/28 09:22:34;;;;;;;2.20;0.98;;;;;;;19.77;82.76;101932.97;5102839;28;20367;-72
2022/07/28 09:25:02;;;;;;;6.75;0.70;;;;;;;20.02;81.36;101939.13;5103125;28;20404;-72
2022/07/28 09:27:41;;;;;;;4.68;0.98;;;;;;;20.13;78.45;101936.41;5116820;28;20031;-72
2022/07/28 09:30:07;;;;;;;4.05;0.70;;;;;;;20.00;75.88;101934.69;5106795;28;20463;-72
2022/07/28 09:32:32;;;;;;;2.55;0.85;;;;;;;20.10;75.65;101933.72;5105787;28;20146;-72
2022/07/28 09:34:58;;;;;;;5.15;1.13;;;;;;;19.99;75.46;101936.47;5103126;28;20123;-72
2022/07/28 09:37:25;;;;;;;3.92;1.00;;;;;;;20.02;75.05;101932.88;5106538;28;20032;-72
2022/07/28 09:39:53;;;;;;;4.63;1.05;;;;;;;19.95;79.22;101929.34;5102401;28;20023;-72
2022/07/28 09:42:20;;;;;;;3.20;1.00;;;;;;;19.84;80.22;101929.41;5099054;28;20039;-72
2022/07/28 09:45:02;;;;;;;4.32;0.80;;;;;;;19.85;85.87;101925.84;5087212;28;20116;-72
2022/07/28 09:47:31;;;;;;;3.25;0.90;;;;;;;19.87;79.86;101932.09;5110604;28;20020;-73
2022/07/28 09:49:57;;;;;;;3.75;0.80;;;;;;;19.84;78.13;101924.06;5098114;28;20027;-71
2022/07/28 09:52:40;;;;;;;2.55;0.93;;;;;;;19.91;78.38;101929.41;5104503;28;20117;-72
2022/07/28 09:55:09;;;;;;;2.78;1.00;;;;;;;19.83;81.16;101930.34;5095265;28;20498;-74
2022/07/28 09:57:38;;;;;;;5.47;1.30;;;;;;;20.18;80.11;101926.59;5113575;28;20044;-72
2022/07/28 10:00:10;;;;;;;3.03;0.70;;;;;;;20.32;76.50;101931.84;5096289;28;20028;-72
2022/07/28 10:02:36;;;;;;;5.65;1.17;;;;;;;20.45;73.90;101927.28;5103935;28;20027;-73
2022/07/28 10:05:02;;;;;;;3.42;0.90;;;;;;;20.23;71.77;101912.31;5114735;28;20118;-71
2022/07/28 10:07:29;;;;;;;2.72;1.33;;;;;;;20.17;76.13;101916.78;5100244;28;20056;-72
2022/07/28 10:10:06;;;;;;;5.38;1.02;;;;;;;20.28;76.92;101918.47;5102949;28;20035;-72
2022/07/28 10:12:35;;;;;;;5.03;0.85;;;;;;;20.47;79.23;101904.09;5094042;28;20035;-71
2022/07/28 10:18:01;;;;;;;2.75;0.90;;;;;;;20.91;73.63;101895.75;5107012;28;20084;-71
2022/07/28 10:20:28;;;;;;;4.70;0.70;;;;;;;20.95;73.97;101892.13;5104947;28;20463;-72
2022/07/28 10:23:01;;;;;;;3.13;1.38;;;;;;;21.20;73.86;101890.97;5113490;28;20110;-71
2022/07/28 10:25:29;;;;;;;2.92;0.93;;;;;;;21.11;68.22;101888.41;5108250;28;20027;-72
2022/07/28 10:27:58;;;;;;;0.82;0.68;;;;;;;21.29;73.73;101891.78;5105201;28;20024;-73
2022/07/28 10:30:23;;;;;;;2.55;0.60;;;;;;;21.29;68.86;101889.09;5105713;28;20053;-73
2022/07/28 10:32:53;;;;;;;2.03;0.70;;;;;;;21.43;68.48;101888.94;5112408;28;20110;-72
2022/07/28 10:35:18;;;;;;;3.08;0.90;;;;;;;21.51;69.16;101890.63;5106305;28;20535;-73
2022/07/28 10:38:02;;;;;;;1.08;0.80;;;;;;;21.60;68.02;101888.78;5101819;28;20043;-72
2022/07/28 10:40:35;;;;;;;2.72;0.90;;;;;;;21.70;67.45;101885.03;5102753;28;20076;-72
2022/07/28 10:43:00;;;;;;;4.25;0.80;;;;;;;21.81;67.19;101883.13;5104152;28;20028;-72
2022/07/28 10:45:26;;;;;;;5.93;1.40;;;;;;;21.82;67.09;101884.88;5103033;28;20032;-71
2022/07/28 10:47:53;;;;;;;4.50;1.15;;;;;;;22.06;64.43;101882.78;5116807;27;20090;-71
2022/07/28 10:50:20;;;;;;;3.40;0.90;;;;;;;22.16;66.03;101868.31;5095221;28;20035;-72
2022/07/28 10:52:47;;;;;;;4.75;0.90;;;;;;;22.23;65.99;101875.34;5108593;28;20107;-72
2022/07/28 10:55:30;;;;;;;2.97;0.70;;;;;;;22.33;63.52;101876.09;5110295;28;20386;-72
2022/07/28 10:58:03;;;;;;;3.83;1.05;;;;;;;22.33;65.14;101875.22;5102249;28;20036;-72
2022/07/28 11:00:32;;;;;;;2.67;0.75;;;;;;;22.50;61.14;101870.47;5086005;28;20036;-72
2022/07/28 11:03:00;;;;;;;1.33;0.80;;;;;;;22.63;64.48;101875.66;5103203;28;20028;-72
2022/07/28 11:05:35;;;;;;;6.22;1.20;;;;;;;22.75;59.03;101867.38;5089840;28;20104;-72
2022/07/28 11:08:25;;;;;;;1.52;0.70;;;;;;;22.85;63.48;101863.59;5119103;27;20024;-72
2022/07/28 11:10:52;;;;;;;2.95;0.90;;;;;;;22.82;65.03;101869.03;5109490;28;20031;-72
2022/07/28 11:13:27;;;;;;;2.70;0.75;;;;;;;22.85;65.92;101870.78;5100251;28;20039;-72
2022/07/28 11:15:54;;;;;;;3.35;1.00;;;;;;;22.84;64.82;101872.59;5107516;28;20032;-72
2022/07/28 11:18:20;;;;;;;2.30;0.70;;;;;;;23.13;61.69;101867.59;5096630;28;20019;-73
2022/07/28 11:20:51;;;;;;;3.90;0.85;;;;;;;23.29;60.35;101866.38;5103177;28;20039;-72
2022/07/28 11:23:35;;;;;;;1.48;0.80;;;;;;;23.36;62.84;101853.72;5099714;28;20390;-72
2022/07/28 11:26:19;;;;;;;3.42;0.70;;;;;;;23.48;56.46;101844.50;5110916;27;20051;-73